Time;durP1;ratioP1;P1;durP2;ratioP2;P2;SDS_P1;SDS_P2;PMS_P1;PMS_P2;Temp;Humidity;BMP_temperature;BMP_pressure;BME280_temperature;BME280_humidity;BME280_pressure;Samples;Min_cycle;Max_cycle;Signal;HPM_P1;HPM_P2
2021/03/09 00:01:55;;;;;;;40.20;22.47;;;-0.50;99.90;;;;;;5053029;28;20227;-73
2021/03/09 00:04:22;;;;;;;39.63;22.00;;;-0.60;99.90;;;;;;5052957;28;20282;-74
2021/03/09 00:06:49;;;;;;;38.63;22.73;;;-0.70;99.90;;;;;;5051928;28;20741;-73
2021/03/09 00:09:16;;;;;;;40.83;22.80;;;-0.70;99.90;;;;;;5052168;28;20196;-73
2021/03/09 00:11:42;;;;;;;38.33;22.30;;;-0.80;99.90;;;;;;5052696;28;20235;-73
2021/03/09 00:14:08;;;;;;;37.70;22.07;;;-0.80;99.90;;;;;;5052289;28;20273;-73
2021/03/09 00:16:35;;;;;;;39.53;22.47;;;-0.80;99.90;;;;;;5050359;28;20246;-74
2021/03/09 00:19:01;;;;;;;40.73;22.87;;;-0.80;99.90;;;;;;5032862;28;20280;-73
2021/03/09 00:21:28;;;;;;;40.53;23.17;;;-0.90;99.90;;;;;;5024890;28;20247;-74
2021/03/09 00:23:55;;;;;;;51.17;26.90;;;-1.00;99.90;;;;;;5051565;28;20235;-73
2021/03/09 00:26:22;;;;;;;44.77;25.33;;;-1.00;99.90;;;;;;5051419;28;20310;-74
2021/03/09 00:28:48;;;;;;;38.30;23.13;;;-1.10;99.90;;;;;;5051774;28;20238;-74
2021/03/09 00:31:15;;;;;;;42.53;24.23;;;-1.20;99.90;;;;;;5052242;28;20648;-73
2021/03/09 00:33:41;;;;;;;40.60;22.97;;;-1.20;99.90;;;;;;5044484;28;20228;-73
2021/03/09 00:36:08;;;;;;;44.47;23.20;;;-1.20;99.90;;;;;;5032652;28;20208;-73
2021/03/09 00:38:34;;;;;;;40.67;23.63;;;-1.20;99.90;;;;;;5047851;28;20204;-73
2021/03/09 00:41:02;;;;;;;42.03;23.37;;;-1.30;99.90;;;;;;5052299;28;20242;-74
2021/03/09 00:43:28;;;;;;;42.27;23.47;;;-1.30;99.90;;;;;;5052060;28;20290;-73
2021/03/09 00:45:54;;;;;;;52.67;29.43;;;-1.30;99.90;;;;;;5048090;28;20287;-74
2021/03/09 00:48:21;;;;;;;51.93;31.40;;;-1.30;99.90;;;;;;5045399;28;20752;-73
2021/03/09 00:50:47;;;;;;;49.90;29.90;;;-1.30;99.90;;;;;;5034295;28;20243;-73
2021/03/09 00:53:14;;;;;;;47.13;25.33;;;-1.30;99.90;;;;;;5052000;28;20243;-73
2021/03/09 00:55:40;;;;;;;41.77;23.07;;;-1.30;99.90;;;;;;5051817;28;20233;-73
2021/03/09 00:58:07;;;;;;;39.67;22.77;;;-1.30;99.90;;;;;;5051527;28;20646;-73
2021/03/09 01:00:34;;;;;;;38.87;22.53;;;-1.30;99.90;;;;;;5050802;28;20238;-74
2021/03/09 01:03:00;;;;;;;41.90;23.13;;;-1.40;99.90;;;;;;5037352;28;20211;-74
2021/03/09 01:05:27;;;;;;;44.10;22.70;;;-1.40;99.90;;;;;;5049038;28;20287;-73
2021/03/09 01:07:54;;;;;;;40.53;22.90;;;-1.40;99.90;;;;;;5038052;28;20303;-73
2021/03/09 01:10:22;;;;;;;37.30;21.47;;;-1.50;99.90;;;;;;5035921;28;20278;-74
2021/03/09 01:12:49;;;;;;;40.60;22.00;;;-1.50;99.90;;;;;;5037028;28;20205;-73
2021/03/09 01:15:17;;;;;;;41.07;22.60;;;-1.50;99.90;;;;;;5051988;28;20270;-74
2021/03/09 01:17:44;;;;;;;39.70;22.53;;;-1.50;99.90;;;;;;5050164;28;20263;-73
2021/03/09 01:20:12;;;;;;;39.13;22.40;;;-1.60;99.90;;;;;;5051318;28;20327;-73
2021/03/09 01:22:38;;;;;;;39.80;21.93;;;-1.70;99.90;;;;;;5051363;28;20241;-73
2021/03/09 01:25:06;;;;;;;40.70;22.53;;;-1.70;99.90;;;;;;5051624;28;20213;-73
2021/03/09 01:27:32;;;;;;;41.10;22.50;;;-1.70;99.90;;;;;;5050358;28;20674;-73
2021/03/09 01:29:59;;;;;;;38.20;21.83;;;-1.60;99.90;;;;;;5050746;28;20646;-73
2021/03/09 01:32:27;;;;;;;41.67;22.20;;;-1.60;99.90;;;;;;5051563;28;20765;-73
2021/03/09 01:34:53;;;;;;;41.30;22.27;;;-1.60;99.90;;;;;;5045924;28;20620;-74
2021/03/09 01:37:19;;;;;;;39.17;22.73;;;-1.70;99.90;;;;;;5035645;28;20200;-74
2021/03/09 01:39:46;;;;;;;39.67;22.00;;;-1.70;99.90;;;;;;5047605;28;20228;-74
2021/03/09 01:42:12;;;;;;;39.60;22.00;;;-1.70;99.90;;;;;;5048998;28;20250;-74
2021/03/09 01:44:39;;;;;;;39.37;21.57;;;-1.70;99.90;;;;;;5044621;28;20274;-73
2021/03/09 01:47:06;;;;;;;43.40;23.03;;;-1.60;99.90;;;;;;5054387;28;20807;-74
2021/03/09 01:49:36;;;;;;;42.53;22.37;;;-1.60;99.90;;;;;;5037070;28;20202;-74
2021/03/09 01:52:05;;;;;;;41.67;22.10;;;-1.70;99.90;;;;;;5042286;28;20205;-74
2021/03/09 01:54:32;;;;;;;42.90;22.23;;;-1.70;99.90;;;;;;5054459;28;20296;-74
2021/03/09 01:57:00;;;;;;;43.13;22.30;;;-1.70;99.90;;;;;;5054866;28;20641;-73
2021/03/09 01:59:26;;;;;;;41.93;22.67;;;-1.80;99.90;;;;;;5054410;28;20242;-73
2021/03/09 02:01:53;;;;;;;37.83;21.33;;;-1.80;99.90;;;;;;5055089;28;20300;-73
2021/03/09 02:04:20;;;;;;;45.17;23.77;;;-1.80;99.90;;;;;;5054740;28;20216;-74
2021/03/09 02:06:48;;;;;;;42.87;22.57;;;-1.80;99.90;;;;;;5054826;28;20215;-73
2021/03/09 02:09:15;;;;;;;42.57;23.20;;;-1.80;99.90;;;;;;5054713;28;20202;-74
2021/03/09 02:11:51;;;;;;;42.33;23.10;;;-1.90;99.90;;;;;;5054315;28;20226;-73
2021/03/09 02:14:27;;;;;;;39.70;22.10;;;-1.90;99.90;;;;;;5054792;28;20238;-73
2021/03/09 02:16:59;;;;;;;42.80;22.53;;;-1.90;99.90;;;;;;5040318;28;20249;-74
2021/03/09 02:20:14;;;;;;;38.33;20.83;;;-1.90;99.90;;;;;;5051554;28;20285;-74
2021/03/09 02:23:14;;;;;;;38.40;21.53;;;-1.90;99.90;;;;;;5046039;28;20260;-74
2021/03/09 02:26:16;;;;;;;39.77;21.23;;;-2.00;99.90;;;;;;5039352;28;20288;-74
2021/03/09 02:28:48;;;;;;;41.77;21.33;;;-2.00;99.90;;;;;;5054203;28;20609;-73
2021/03/09 02:31:17;;;;;;;38.10;21.60;;;-2.10;99.90;;;;;;5051935;28;20272;-74
2021/03/09 02:33:47;;;;;;;40.03;20.43;;;-2.10;99.90;;;;;;5035657;28;20746;-74
2021/03/09 02:36:17;;;;;;;37.70;21.53;;;-2.20;99.90;;;;;;5053149;28;20240;-73
2021/03/09 02:38:49;;;;;;;40.50;21.17;;;-2.10;99.90;;;;;;5053662;28;20245;-73
2021/03/09 02:41:18;;;;;;;40.20;21.97;;;-2.20;99.90;;;;;;5036368;28;20275;-73
2021/03/09 02:43:47;;;;;;;37.40;20.17;;;-2.20;99.90;;;;;;5054165;28;20241;-74
2021/03/09 02:46:16;;;;;;;38.13;20.63;;;-2.30;99.90;;;;;;5053962;28;20214;-74
2021/03/09 02:48:44;;;;;;;36.83;20.20;;;-2.30;99.90;;;;;;5050661;28;20284;-73
2021/03/09 02:51:12;;;;;;;40.07;21.50;;;-2.40;99.90;;;;;;5037773;28;20230;-74
2021/03/09 02:53:45;;;;;;;42.13;21.37;;;-2.30;99.90;;;;;;5039057;28;20649;-74
2021/03/09 02:56:13;;;;;;;43.50;21.83;;;-2.30;99.90;;;;;;5034024;28;20237;-74
2021/03/09 02:58:45;;;;;;;43.40;22.63;;;-2.30;99.90;;;;;;5040531;28;20725;-73
2021/03/09 03:01:13;;;;;;;43.70;22.93;;;-2.30;99.90;;;;;;5043610;28;20275;-74
2021/03/09 03:03:42;;;;;;;40.50;21.50;;;-2.30;99.90;;;;;;5053264;28;20627;-74
2021/03/09 03:06:11;;;;;;;40.37;20.83;;;-2.30;99.90;;;;;;5054048;28;20245;-73
2021/03/09 03:08:39;;;;;;;39.73;21.87;;;-2.40;99.90;;;;;;5052822;28;20278;-74
2021/03/09 03:11:07;;;;;;;41.50;21.77;;;-2.40;99.90;;;;;;5053702;28;20197;-74
2021/03/09 03:13:34;;;;;;;45.07;21.50;;;-2.30;99.90;;;;;;5052348;28;20237;-74
2021/03/09 03:16:03;;;;;;;40.27;22.70;;;-2.30;99.90;;;;;;5035151;28;20234;-73
2021/03/09 03:18:31;;;;;;;44.10;22.23;;;-2.30;99.90;;;;;;5040240;28;20251;-74
2021/03/09 03:20:59;;;;;;;38.07;21.77;;;-2.30;99.90;;;;;;5052581;28;20265;-72
2021/03/09 03:23:27;;;;;;;39.80;21.43;;;-2.40;99.90;;;;;;5034021;28;20301;-73
2021/03/09 03:25:56;;;;;;;40.60;21.83;;;-2.50;99.90;;;;;;5033400;28;20252;-73
2021/03/09 03:28:23;;;;;;;40.80;20.97;;;-2.50;99.90;;;;;;5040087;28;20274;-73
2021/03/09 03:30:50;;;;;;;38.07;20.67;;;-2.50;99.90;;;;;;5052047;28;20238;-74
2021/03/09 03:33:17;;;;;;;38.33;20.70;;;-2.50;99.90;;;;;;5051754;28;20230;-73
2021/03/09 03:35:45;;;;;;;42.60;21.13;;;-2.50;99.90;;;;;;5051498;28;20287;-73
2021/03/09 03:38:15;;;;;;;37.40;20.70;;;-2.50;99.90;;;;;;5053211;28;20556;-74
2021/03/09 03:40:42;;;;;;;39.03;20.03;;;-2.60;99.90;;;;;;5053238;28;20204;-73
2021/03/09 03:43:09;;;;;;;38.07;20.13;;;-2.60;99.90;;;;;;5053042;28;20208;-73
2021/03/09 03:45:36;;;;;;;37.00;20.47;;;-2.70;99.90;;;;;;5051958;28;20201;-74
2021/03/09 03:48:03;;;;;;;36.00;20.07;;;-2.80;99.90;;;;;;5053264;28;20256;-73
2021/03/09 03:50:31;;;;;;;38.23;20.20;;;-2.70;99.90;;;;;;5050221;28;20280;-73
2021/03/09 03:53:06;;;;;;;38.27;19.53;;;-2.70;99.90;;;;;;5053180;28;20242;-73
2021/03/09 03:55:54;;;;;;;36.63;18.77;;;-2.70;99.90;;;;;;5051880;28;20202;-73
2021/03/09 03:58:26;;;;;;;35.30;18.90;;;-2.80;99.90;;;;;;5052631;28;20203;-73
2021/03/09 04:00:53;;;;;;;35.87;19.20;;;-2.90;99.90;;;;;;5052193;28;20212;-73
2021/03/09 04:03:20;;;;;;;37.83;20.00;;;-2.80;99.90;;;;;;5052375;28;20233;-73
2021/03/09 04:05:50;;;;;;;39.83;20.20;;;-2.80;99.90;;;;;;5052391;28;20235;-73
2021/03/09 04:08:17;;;;;;;40.83;22.27;;;-2.80;99.90;;;;;;5052009;28;20258;-73
2021/03/09 04:10:48;;;;;;;46.40;22.03;;;-2.80;99.90;;;;;;5034616;28;20236;-73
2021/03/09 04:13:16;;;;;;;47.27;24.57;;;-2.80;99.90;;;;;;5051671;28;20593;-73
2021/03/09 04:15:43;;;;;;;50.87;25.03;;;-2.80;99.90;;;;;;5050767;28;20240;-74
2021/03/09 04:18:12;;;;;;;52.67;25.27;;;-2.80;99.90;;;;;;5050902;28;20250;-73
2021/03/09 04:20:42;;;;;;;47.40;24.20;;;-2.80;99.90;;;;;;5051916;28;20337;-73
2021/03/09 04:23:09;;;;;;;46.43;22.70;;;-2.80;99.90;;;;;;5052586;28;20233;-73
2021/03/09 04:25:38;;;;;;;41.77;22.30;;;-2.90;99.90;;;;;;5052264;28;20233;-73
2021/03/09 04:28:06;;;;;;;41.70;21.00;;;-2.90;99.90;;;;;;5049857;28;20253;-74
2021/03/09 04:30:33;;;;;;;41.57;21.17;;;-2.90;99.90;;;;;;5051349;28;20282;-73
2021/03/09 04:33:01;;;;;;;43.97;21.63;;;-2.80;99.90;;;;;;5051216;28;20239;-74
2021/03/09 04:35:28;;;;;;;40.97;21.70;;;-2.90;99.90;;;;;;5051630;28;20247;-74
2021/03/09 04:37:56;;;;;;;37.13;20.53;;;-2.90;99.90;;;;;;5051201;28;20193;-74
2021/03/09 04:40:23;;;;;;;39.87;20.97;;;-2.90;99.90;;;;;;5051147;28;20196;-74
2021/03/09 04:42:49;;;;;;;42.67;21.13;;;-2.90;99.90;;;;;;5039499;28;20204;-74
2021/03/09 04:45:18;;;;;;;40.40;21.47;;;-2.90;99.90;;;;;;5031960;28;20247;-74
2021/03/09 04:47:45;;;;;;;38.10;20.03;;;-2.90;99.90;;;;;;5049063;28;20227;-74
2021/03/09 04:50:14;;;;;;;42.17;20.83;;;-3.00;99.90;;;;;;5049902;28;20270;-74
2021/03/09 04:52:41;;;;;;;37.53;19.83;;;-3.00;99.90;;;;;;5051260;28;20200;-74
2021/03/09 04:55:09;;;;;;;37.07;19.87;;;-3.00;99.90;;;;;;5051687;28;20286;-74
2021/03/09 04:57:38;;;;;;;39.00;20.63;;;-3.00;99.90;;;;;;5052081;28;20238;-74
2021/03/09 05:00:07;;;;;;;41.07;21.43;;;-2.90;99.90;;;;;;5043592;28;20317;-74
2021/03/09 05:02:35;;;;;;;38.07;20.37;;;-2.90;99.90;;;;;;5038604;28;20684;-74
2021/03/09 05:05:02;;;;;;;42.73;21.07;;;-2.90;99.90;;;;;;5038312;28;20233;-72
2021/03/09 05:07:29;;;;;;;38.20;21.33;;;-2.90;99.90;;;;;;5039872;28;20705;-72
2021/03/09 05:09:55;;;;;;;42.03;21.67;;;-2.90;99.90;;;;;;5035124;28;20636;-73
2021/03/09 05:12:21;;;;;;;40.67;21.13;;;-2.80;99.90;;;;;;5050801;28;20235;-72
2021/03/09 05:14:48;;;;;;;44.53;21.83;;;-2.80;99.90;;;;;;5060044;28;20241;-72
2021/03/09 05:17:14;;;;;;;41.07;20.67;;;-2.80;99.90;;;;;;5062295;28;20253;-72
2021/03/09 05:19:41;;;;;;;40.67;20.83;;;-2.80;99.90;;;;;;5046677;28;20274;-72
2021/03/09 05:22:08;;;;;;;41.00;22.00;;;-2.80;99.90;;;;;;5050606;28;20238;-72
2021/03/09 05:24:35;;;;;;;41.90;21.83;;;-2.80;99.90;;;;;;5050951;28;20679;-72
2021/03/09 05:27:01;;;;;;;38.80;20.97;;;-2.80;99.90;;;;;;5031592;28;20318;-72
2021/03/09 05:29:27;;;;;;;42.47;21.50;;;-2.90;99.90;;;;;;5031392;28;20717;-74
2021/03/09 05:31:54;;;;;;;41.07;20.83;;;-2.80;99.90;;;;;;5031630;28;20240;-72
2021/03/09 05:34:20;;;;;;;44.73;21.83;;;-2.70;99.90;;;;;;5049015;28;20245;-72
2021/03/09 05:36:48;;;;;;;42.60;21.90;;;-2.70;99.90;;;;;;5051524;28;20361;-73
2021/03/09 05:39:14;;;;;;;45.33;21.83;;;-2.70;99.90;;;;;;5050583;28;20243;-72
2021/03/09 05:41:41;;;;;;;42.57;22.30;;;-2.80;99.90;;;;;;5051200;28;20243;-72
2021/03/09 05:44:08;;;;;;;44.03;21.60;;;-2.80;99.90;;;;;;5044006;28;20229;-72
2021/03/09 05:46:34;;;;;;;44.03;21.60;;;-2.90;99.90;;;;;;5031114;28;20248;-74
2021/03/09 05:49:01;;;;;;;42.70;21.90;;;-2.90;99.90;;;;;;5034317;28;20294;-74
2021/03/09 05:51:30;;;;;;;42.43;21.20;;;-2.90;99.90;;;;;;5050890;28;20197;-72
2021/03/09 05:53:58;;;;;;;41.00;21.23;;;-3.00;99.90;;;;;;5051367;28;20232;-72
2021/03/09 05:56:24;;;;;;;43.17;21.57;;;-3.00;99.90;;;;;;5051162;28;20271;-72
2021/03/09 05:58:52;;;;;;;39.13;20.47;;;-3.10;99.90;;;;;;5051412;28;20591;-75
2021/03/09 06:01:19;;;;;;;42.33;21.00;;;-3.00;99.90;;;;;;5034986;28;20252;-75
2021/03/09 06:03:45;;;;;;;41.13;21.03;;;-3.00;99.90;;;;;;5040030;28;20250;-74
2021/03/09 06:06:12;;;;;;;43.70;22.67;;;-3.00;99.90;;;;;;5031520;28;20240;-73
2021/03/09 06:08:39;;;;;;;46.83;24.07;;;-3.00;99.90;;;;;;5037692;28;20310;-73
2021/03/09 06:11:17;;;;;;;42.93;22.80;;;-2.90;99.90;;;;;;5050560;28;20603;-74
2021/03/09 06:13:44;;;;;;;46.53;23.30;;;-3.00;99.90;;;;;;5050231;28;20200;-74
2021/03/09 06:16:11;;;;;;;47.17;24.33;;;-3.00;99.90;;;;;;5050442;28;20261;-73
2021/03/09 06:18:38;;;;;;;45.27;24.20;;;-3.10;99.90;;;;;;5048317;28;20252;-74
2021/03/09 06:21:13;;;;;;;44.03;22.07;;;-3.10;99.90;;;;;;5051342;28;20271;-73
2021/03/09 06:23:41;;;;;;;42.30;22.73;;;-3.10;99.90;;;;;;5050128;28;20282;-73
2021/03/09 06:26:33;;;;;;;42.27;22.23;;;-3.10;99.90;;;;;;5038114;28;20240;-73
2021/03/09 06:29:13;;;;;;;43.93;24.63;;;-3.10;99.90;;;;;;5047644;28;20239;-73
2021/03/09 06:31:41;;;;;;;48.60;24.10;;;-3.10;99.90;;;;;;5035521;28;20650;-73
2021/03/09 06:34:25;;;;;;;44.80;23.53;;;-3.10;99.90;;;;;;5048615;28;21052;-72
2021/03/09 06:37:05;;;;;;;46.30;24.10;;;-3.00;99.90;;;;;;5053271;28;20241;-71
2021/03/09 06:39:56;;;;;;;47.40;23.43;;;-2.90;99.90;;;;;;5047429;28;20204;-73
2021/03/09 06:42:26;;;;;;;52.77;25.93;;;-2.80;99.90;;;;;;5036906;28;20236;-74
2021/03/09 06:44:58;;;;;;;47.13;23.00;;;-2.70;99.90;;;;;;5057239;28;20197;-74
2021/03/09 06:47:37;;;;;;;48.30;24.73;;;-2.60;99.90;;;;;;5053365;28;20232;-74
2021/03/09 06:50:06;;;;;;;55.05;34.58;;;-2.50;99.90;;;;;;5045202;28;20527;-75
2021/03/09 06:52:32;;;;;;;54.60;28.87;;;-2.40;99.90;;;;;;5035739;28;20290;-76
2021/03/09 06:54:59;;;;;;;46.77;25.57;;;-2.30;99.90;;;;;;5050323;28;20961;-74
2021/03/09 06:57:27;;;;;;;46.60;24.47;;;-2.20;99.90;;;;;;5051578;28;20471;-74
2021/03/09 06:59:55;;;;;;;49.60;26.77;;;-2.00;99.90;;;;;;5040478;28;20233;-74
2021/03/09 07:02:22;;;;;;;48.63;27.60;;;-1.90;99.90;;;;;;5048082;28;20293;-74
2021/03/09 07:04:50;;;;;;;49.30;26.67;;;-1.80;99.90;;;;;;5048512;28;20231;-75
2021/03/09 07:07:23;;;;;;;41.13;23.17;;;-1.80;99.90;;;;;;5042119;28;21185;-74
2021/03/09 07:09:54;;;;;;;47.67;23.90;;;-1.70;99.90;;;;;;5046223;28;20201;-74
2021/03/09 07:12:21;;;;;;;51.93;24.20;;;-1.60;99.90;;;;;;5049556;28;20234;-74
2021/03/09 07:14:50;;;;;;;41.87;21.90;;;-1.50;99.90;;;;;;5042093;28;20733;-74
2021/03/09 07:17:21;;;;;;;40.33;22.67;;;-1.40;99.90;;;;;;5045731;28;20257;-75
2021/03/09 07:19:48;;;;;;;47.57;23.93;;;-1.30;99.90;;;;;;5049027;28;20241;-75
2021/03/09 07:22:18;;;;;;;44.77;24.77;;;-1.10;99.90;;;;;;5038526;28;20204;-75
2021/03/09 07:24:54;;;;;;;48.37;25.77;;;-0.90;99.90;;;;;;5038156;28;20283;-75
2021/03/09 07:27:27;;;;;;;50.33;26.00;;;-0.70;99.90;;;;;;5031855;28;20223;-74
2021/03/09 07:29:57;;;;;;;63.37;33.07;;;-0.60;99.90;;;;;;5051773;28;20196;-74
2021/03/09 07:32:28;;;;;;;55.80;29.33;;;-0.60;99.90;;;;;;5048751;28;20210;-75
2021/03/09 07:34:56;;;;;;;56.30;30.13;;;-0.50;99.90;;;;;;5052432;28;20707;-74
2021/03/09 07:37:23;;;;;;;62.47;32.73;;;-0.30;99.90;;;;;;5041822;28;20679;-75
2021/03/09 07:39:50;;;;;;;55.07;28.50;;;-0.20;99.90;;;;;;5045422;28;20283;-75
2021/03/09 07:42:17;;;;;;;45.53;25.27;;;-0.10;99.90;;;;;;5034496;28;20874;-75
2021/03/09 07:44:45;;;;;;;46.20;25.97;;;0.00;99.90;;;;;;5038414;28;20207;-74
2021/03/09 07:47:15;;;;;;;45.73;25.03;;;0.10;99.90;;;;;;5039608;28;20780;-75
2021/03/09 07:49:43;;;;;;;50.40;26.27;;;0.30;99.90;;;;;;5041406;28;20240;-75
2021/03/09 07:52:14;;;;;;;49.67;25.70;;;0.50;99.90;;;;;;5032481;28;20668;-75
2021/03/09 07:55:15;;;;;;;55.07;31.37;;;0.60;99.90;;;;;;5043757;28;20695;-75
2021/03/09 07:57:42;;;;;;;52.53;29.27;;;0.70;99.90;;;;;;5042957;28;20728;-75
2021/03/09 08:00:12;;;;;;;53.20;28.30;;;0.80;99.90;;;;;;5045225;28;20207;-75
2021/03/09 08:02:49;;;;;;;56.53;25.97;;;1.00;99.90;;;;;;5035209;28;20564;-75
2021/03/09 08:05:17;;;;;;;57.43;25.13;;;1.00;99.90;;;;;;5039241;28;20389;-75
2021/03/09 08:07:59;;;;;;;59.47;25.53;;;0.90;99.90;;;;;;5038604;28;20302;-75
2021/03/09 08:10:43;;;;;;;56.50;26.70;;;0.90;99.90;;;;;;5040034;28;20582;-75
2021/03/09 08:13:23;;;;;;;42.80;23.33;;;1.00;99.90;;;;;;5037030;28;20311;-75
2021/03/09 08:15:50;;;;;;;44.47;23.80;;;1.00;99.90;;;;;;5041960;28;20695;-76
2021/03/09 08:18:44;;;;;;;47.37;25.77;;;1.00;99.90;;;;;;5040214;28;20244;-75
2021/03/09 08:21:11;;;;;;;43.57;24.03;;;1.20;99.90;;;;;;5040529;28;20715;-75
2021/03/09 08:23:54;;;;;;;43.47;24.03;;;1.20;99.90;;;;;;5041566;28;20943;-75
2021/03/09 08:26:44;;;;;;;47.40;24.73;;;1.20;99.90;;;;;;5038853;28;20640;-75
2021/03/09 08:29:36;;;;;;;40.93;23.50;;;1.30;99.90;;;;;;5046468;28;20208;-75
2021/03/09 08:32:38;;;;;;;47.87;25.10;;;1.60;99.90;;;;;;5043586;28;20283;-75
2021/03/09 08:35:35;;;;;;;48.40;26.07;;;1.70;99.90;;;;;;5037424;28;20196;-75
2021/03/09 08:38:20;;;;;;;48.87;27.10;;;2.00;99.90;;;;;;5041298;28;20204;-75
2021/03/09 08:41:13;;;;;;;44.80;25.33;;;2.30;99.90;;;;;;5045330;28;20231;-75
2021/03/09 08:43:42;;;;;;;57.77;31.73;;;2.40;99.90;;;;;;5037845;28;20270;-75
2021/03/09 08:46:10;;;;;;;61.73;34.67;;;2.40;99.90;;;;;;5030967;28;20604;-75
2021/03/09 08:48:54;;;;;;;48.03;29.30;;;2.60;99.90;;;;;;5036012;28;20323;-74
2021/03/09 08:51:57;;;;;;;45.50;27.33;;;2.80;99.90;;;;;;5031276;28;20206;-74
2021/03/09 08:54:42;;;;;;;47.10;28.10;;;2.50;99.90;;;;;;5039882;28;20636;-74
2021/03/09 08:57:11;;;;;;;46.53;28.13;;;2.60;99.90;;;;;;5048854;28;20246;-74
2021/03/09 08:59:40;;;;;;;47.63;28.13;;;2.70;99.90;;;;;;5036650;28;20875;-74
2021/03/09 09:02:12;;;;;;;45.63;25.87;;;2.80;99.90;;;;;;5047522;28;20253;-74
2021/03/09 09:04:41;;;;;;;42.67;25.97;;;3.10;99.90;;;;;;5046196;28;20227;-74
2021/03/09 09:07:19;;;;;;;40.60;25.37;;;3.30;99.90;;;;;;5039009;28;20196;-73
2021/03/09 09:09:45;;;;;;;43.47;24.97;;;3.20;99.90;;;;;;5034003;28;20475;-73
2021/03/09 09:12:27;;;;;;;51.07;29.43;;;3.80;99.90;;;;;;5048588;28;20211;-74
2021/03/09 09:15:05;;;;;;;54.97;31.60;;;4.30;99.90;;;;;;5006641;28;20204;-73
2021/03/09 09:17:32;;;;;;;48.27;31.30;;;4.50;99.90;;;;;;5035763;28;20304;-75
2021/03/09 09:19:59;;;;;;;44.37;26.00;;;4.60;99.90;;;;;;5032070;28;20681;-74
2021/03/09 09:22:27;;;;;;;57.60;32.63;;;4.70;99.90;;;;;;5038288;28;20643;-74
2021/03/09 09:24:56;;;;;;;57.27;28.93;;;4.40;99.90;;;;;;5040666;28;20763;-74
2021/03/09 09:27:23;;;;;;;38.77;24.67;;;4.70;99.90;;;;;;5042625;28;20259;-74
2021/03/09 09:29:54;;;;;;;46.07;27.90;;;5.10;99.90;;;;;;5047186;28;20257;-74
2021/03/09 09:32:21;;;;;;;76.23;49.90;;;5.10;99.90;;;;;;5042485;28;20290;-75
2021/03/09 09:34:57;;;;;;;48.17;29.50;;;5.30;99.90;;;;;;5036236;28;20751;-74
2021/03/09 09:37:23;;;;;;;70.40;45.97;;;5.70;99.90;;;;;;5038523;28;20202;-74
2021/03/09 09:39:51;;;;;;;72.30;47.30;;;5.70;99.90;;;;;;5038373;28;20236;-74
2021/03/09 09:42:20;;;;;;;83.13;52.47;;;6.20;99.90;;;;;;5040196;28;20244;-74
2021/03/09 09:44:47;;;;;;;93.17;62.57;;;6.20;99.90;;;;;;5043876;28;20245;-74
2021/03/09 09:47:15;;;;;;;71.27;46.23;;;6.80;99.90;;;;;;5031013;28;20262;-74
2021/03/09 09:49:44;;;;;;;53.67;32.20;;;6.70;99.90;;;;;;5030613;28;20197;-74
2021/03/09 09:52:12;;;;;;;62.33;39.50;;;7.20;99.90;;;;;;5030899;28;20204;-74
2021/03/09 09:54:39;;;;;;;46.23;30.40;;;6.90;99.90;;;;;;5045739;28;20205;-74
2021/03/09 09:57:13;;;;;;;66.03;43.63;;;7.30;99.90;;;;;;5041354;28;20229;-74
2021/03/09 09:59:39;;;;;;;51.73;32.13;;;7.50;99.90;;;;;;5040814;28;20248;-75
2021/03/09 10:02:20;;;;;;;48.93;33.17;;;7.40;99.90;;;;;;5050362;28;20231;-74
2021/03/09 10:04:47;;;;;;;49.13;30.30;;;8.00;99.90;;;;;;5038307;28;20296;-75
2021/03/09 10:07:15;;;;;;;52.70;35.67;;;8.60;99.90;;;;;;5053278;28;20241;-74
2021/03/09 10:09:58;;;;;;;50.13;32.43;;;8.80;99.90;;;;;;5044849;28;20235;-75
2021/03/09 10:12:33;;;;;;;52.53;35.90;;;9.30;99.90;;;;;;5054071;28;20239;-75
2021/03/09 10:14:59;;;;;;;38.70;26.50;;;9.20;99.90;;;;;;5053331;28;20744;-74
2021/03/09 10:17:26;;;;;;;41.57;26.10;;;9.50;99.90;;;;;;5045513;28;20210;-73
2021/03/09 10:19:54;;;;;;;41.20;28.43;;;9.50;99.90;;;;;;5051533;28;20722;-74
2021/03/09 10:22:22;;;;;;;41.23;26.90;;;9.60;99.90;;;;;;5052907;28;20204;-75
2021/03/09 10:24:49;;;;;;;38.80;26.00;;;10.70;99.90;;;;;;5039288;28;20200;-74
2021/03/09 10:27:17;;;;;;;40.27;27.77;;;11.50;99.90;;;;;;5038245;28;20455;-74
2021/03/09 10:29:45;;;;;;;39.87;27.17;;;11.40;99.90;;;;;;5034561;28;20682;-74
2021/03/09 10:32:18;;;;;;;38.67;27.20;;;11.60;99.90;;;;;;5038355;28;20238;-74
2021/03/09 10:34:48;;;;;;;36.37;26.57;;;11.80;99.90;;;;;;5047158;28;20279;-74
2021/03/09 10:37:16;;;;;;;37.67;27.13;;;12.30;99.90;;;;;;5041476;28;20545;-74
2021/03/09 10:39:54;;;;;;;38.57;27.23;;;13.50;99.90;;;;;;5039260;28;20211;-76
2021/03/09 10:42:28;;;;;;;38.03;28.00;;;14.30;99.90;;;;;;5040555;28;20687;-73
2021/03/09 10:44:58;;;;;;;38.73;28.10;;;14.20;99.90;;;;;;5053869;28;20261;-74
2021/03/09 10:47:25;;;;;;;36.60;27.07;;;13.90;99.90;;;;;;5035614;28;20231;-74
2021/03/09 10:49:51;;;;;;;38.93;28.80;;;14.90;99.90;;;;;;5034470;28;20239;-74
2021/03/09 10:52:18;;;;;;;38.97;28.57;;;15.10;99.90;;;;;;5043256;28;20306;-76
2021/03/09 10:54:44;;;;;;;39.63;30.00;;;14.90;99.90;;;;;;5044366;28;20236;-75
2021/03/09 10:57:12;;;;;;;40.30;28.50;;;13.80;99.90;;;;;;5042188;28;20299;-76
2021/03/09 10:59:39;;;;;;;37.60;28.93;;;14.40;99.90;;;;;;5043813;28;20238;-75
2021/03/09 11:02:10;;;;;;;38.97;28.83;;;14.60;99.90;;;;;;5045432;28;20250;-75
2021/03/09 11:04:37;;;;;;;37.77;27.97;;;14.70;99.90;;;;;;5048613;28;20224;-75
2021/03/09 11:07:03;;;;;;;39.10;28.63;;;14.80;99.90;;;;;;5037253;28;20215;-75
2021/03/09 11:09:30;;;;;;;42.10;31.30;;;14.30;99.90;;;;;;5042702;28;20200;-75
2021/03/09 11:11:56;;;;;;;46.60;35.73;;;15.20;99.90;;;;;;5045074;28;20311;-76
2021/03/09 11:14:23;;;;;;;52.63;40.83;;;14.60;99.90;;;;;;5044981;28;20619;-76
2021/03/09 11:16:49;;;;;;;43.23;32.73;;;14.20;99.90;;;;;;5044993;28;20587;-75
2021/03/09 11:19:17;;;;;;;39.07;29.23;;;15.80;99.90;;;;;;5039533;28;20288;-75
2021/03/09 11:21:43;;;;;;;53.93;41.60;;;15.50;99.90;;;;;;5049783;28;20247;-75
2021/03/09 11:24:10;;;;;;;34.93;26.80;;;15.70;99.90;;;;;;5044849;28;20231;-76
2021/03/09 11:26:37;;;;;;;47.67;36.97;;;15.30;99.90;;;;;;5044050;28;20294;-75
2021/03/09 11:29:04;;;;;;;32.13;25.60;;;15.00;99.90;;;;;;5046387;28;20269;-76
2021/03/09 11:31:31;;;;;;;40.23;31.40;;;15.70;99.90;;;;;;5036226;28;20629;-75
2021/03/09 11:33:57;;;;;;;33.83;25.53;;;15.20;99.90;;;;;;5036436;28;20196;-76
2021/03/09 11:36:25;;;;;;;32.40;25.27;;;15.10;99.90;;;;;;5042952;28;20205;-75
2021/03/09 11:38:51;;;;;;;38.47;30.30;;;13.90;99.90;;;;;;5043784;28;20297;-75
2021/03/09 11:41:19;;;;;;;43.53;33.27;;;13.30;99.90;;;;;;5040664;28;20236;-75
2021/03/09 11:43:47;;;;;;;38.93;31.17;;;15.10;99.90;;;;;;5040167;28;20200;-75
2021/03/09 11:46:13;;;;;;;34.40;26.47;;;15.10;99.90;;;;;;5039643;28;20287;-76
2021/03/09 11:48:40;;;;;;;35.53;26.50;;;14.00;99.90;;;;;;5041302;28;20255;-75
2021/03/09 11:51:08;;;;;;;33.37;25.57;;;13.40;99.90;;;;;;5041281;28;20236;-76
2021/03/09 11:53:35;;;;;;;29.03;22.00;;;13.80;99.90;;;;;;5041339;28;20307;-75
2021/03/09 11:56:02;;;;;;;35.40;26.90;;;14.00;99.90;;;;;;5043870;28;20281;-74
2021/03/09 11:58:28;;;;;;;39.77;33.33;;;14.00;99.90;;;;;;5046909;28;20287;-75
2021/03/09 12:00:55;;;;;;;34.10;24.40;;;14.00;99.90;;;;;;5043467;28;20332;-75
2021/03/09 12:03:21;;;;;;;34.80;24.67;;;14.30;99.90;;;;;;5047987;28;20244;-75
2021/03/09 12:05:48;;;;;;;29.53;24.20;;;15.90;99.90;;;;;;5049310;28;20246;-76
2021/03/09 12:08:14;;;;;;;32.27;24.30;;;16.40;99.90;;;;;;5041871;28;20216;-76
2021/03/09 12:10:42;;;;;;;25.10;19.73;;;16.00;99.90;;;;;;5044196;28;20287;-74
2021/03/09 12:13:09;;;;;;;28.60;24.63;;;15.70;99.90;;;;;;5041433;28;20234;-76
2021/03/09 12:15:35;;;;;;;25.00;20.37;;;16.10;99.90;;;;;;5042411;28;20574;-76
2021/03/09 12:18:02;;;;;;;26.10;21.87;;;15.80;99.90;;;;;;5038127;28;20273;-76
2021/03/09 12:20:29;;;;;;;26.80;21.37;;;15.10;99.90;;;;;;5045688;28;20278;-76
2021/03/09 12:22:55;;;;;;;26.93;21.60;;;15.10;99.90;;;;;;5041695;28;20241;-76
2021/03/09 12:25:22;;;;;;;26.97;20.27;;;15.20;99.90;;;;;;5044620;28;20242;-76
2021/03/09 12:27:50;;;;;;;26.13;20.47;;;15.20;99.90;;;;;;5043607;28;20260;-75
2021/03/09 12:30:17;;;;;;;27.10;20.20;;;15.20;99.90;;;;;;5049193;28;20227;-76
2021/03/09 12:32:43;;;;;;;38.30;34.07;;;14.40;99.90;;;;;;5044547;28;20609;-76
2021/03/09 12:35:11;;;;;;;37.77;33.43;;;14.20;99.90;;;;;;5040139;28;20232;-76
2021/03/09 12:37:39;;;;;;;39.10;35.00;;;14.00;99.90;;;;;;5045991;28;20818;-76
2021/03/09 12:40:07;;;;;;;23.07;18.63;;;14.20;99.90;;;;;;5051136;28;20227;-76
2021/03/09 12:42:33;;;;;;;23.13;17.80;;;14.10;99.90;;;;;;5034723;28;20680;-75